Time;durP1;ratioP1;P1;durP2;ratioP2;P2;SDS_P1;SDS_P2;PMS_P1;PMS_P2;Temp;Humidity;BMP_temperature;BMP_pressure;BME280_temperature;BME280_humidity;BME280_pressure;Samples;Min_cycle;Max_cycle;Signal;HPM_P1;HPM_P2
2023/07/23 00:01:35;;;;;;;4.00;2.90;;;;;;;-128.00;-1.00;-1.00;97884;288;1002915;-29
2023/07/23 00:04:00;;;;;;;3.40;2.90;;;;;;;-128.00;-1.00;-1.00;97943;288;1004188;-29
2023/07/23 00:06:26;;;;;;;4.10;2.60;;;;;;;-128.00;-1.00;-1.00;97838;296;1004000;-33
2023/07/23 00:08:52;;;;;;;6.00;3.40;;;;;;;-128.00;-1.00;-1.00;97840;296;1003391;-29
2023/07/23 00:11:17;;;;;;;2.40;2.10;;;;;;;-128.00;-1.00;-1.00;97933;295;1003241;-31
2023/07/23 00:13:43;;;;;;;3.60;2.60;;;;;;;-128.00;-1.00;-1.00;97770;296;1003305;-34
2023/07/23 00:16:09;;;;;;;3.20;2.10;;;;;;;-128.00;-1.00;-1.00;97893;296;1003433;-30
2023/07/23 00:18:34;;;;;;;4.40;3.00;;;;;;;-128.00;-1.00;-1.00;97971;295;1002771;-35
2023/07/23 00:21:00;;;;;;;3.50;2.00;;;;;;;-128.00;-1.00;-1.00;98038;296;1003474;-34
2023/07/23 00:23:26;;;;;;;3.90;3.10;;;;;;;-128.00;-1.00;-1.00;97892;295;1003049;-29
2023/07/23 00:25:51;;;;;;;7.00;3.70;;;;;;;-128.00;-1.00;-1.00;97958;284;1003261;-30
2023/07/23 00:28:17;;;;;;;3.80;3.20;;;;;;;-128.00;-1.00;-1.00;97921;296;1002977;-31
2023/07/23 00:30:43;;;;;;;7.80;2.70;;;;;;;-128.00;-1.00;-1.00;98047;295;1003873;-33
2023/07/23 00:33:09;;;;;;;8.10;2.80;;;;;;;-128.00;-1.00;-1.00;98024;295;1005694;-33
2023/07/23 00:35:35;;;;;;;6.40;3.60;;;;;;;-128.00;-1.00;-1.00;97904;284;1003266;-29
2023/07/23 01:19:02;;;;;;;5.80;4.20;;;;;;;11.51;91.83;99258.91;101198;284;557817;-30
2023/07/23 01:21:28;;;;;;;7.10;4.20;;;;;;;11.78;91.11;99253.84;101004;297;413175;-34
2023/07/23 01:23:54;;;;;;;4.80;4.10;;;;;;;-44.10;54.24;56204.18;99914;297;1002289;-34
2023/07/23 01:26:20;;;;;;;5.80;4.10;;;;;;;-128.00;-1.00;-1.00;97864;296;1003521;-33
2023/07/23 01:28:45;;;;;;;9.60;4.60;;;;;;;-128.00;-1.00;-1.00;97982;296;1002913;-30
2023/07/23 01:31:12;;;;;;;15.70;4.70;;;;;;;-128.00;-1.00;-1.00;98031;284;1003153;-34
2023/07/23 01:33:41;;;;;;;6.40;4.70;;;;;;;-128.00;-1.00;-1.00;97962;296;1003925;-34
2023/07/23 01:36:06;;;;;;;4.30;3.80;;;;;;;-128.00;-1.00;-1.00;97889;296;1002789;-33
2023/07/23 01:38:32;;;;;;;4.60;4.00;;;;;;;-128.00;-1.00;-1.00;97830;296;1003146;-30
2023/07/23 01:40:58;;;;;;;7.10;4.70;;;;;;;-128.00;-1.00;-1.00;97968;296;1004403;-40
2023/07/23 01:43:23;;;;;;;10.30;4.30;;;;;;;-128.00;-1.00;-1.00;97903;296;1003182;-30
2023/07/23 01:45:49;;;;;;;6.70;5.20;;;;;;;-128.00;-1.00;-1.00;97834;296;1004264;-29
2023/07/23 01:48:15;;;;;;;6.30;5.20;;;;;;;-128.00;-1.00;-1.00;98030;296;1002535;-36
2023/07/23 01:50:41;;;;;;;7.10;4.30;;;;;;;-128.00;-1.00;-1.00;98029;296;1003537;-33
2023/07/23 01:53:07;;;;;;;6.30;5.00;;;;;;;-128.00;-1.00;-1.00;97880;292;1002244;-31
2023/07/23 01:55:33;;;;;;;8.90;5.10;;;;;;;-128.00;-1.00;-1.00;97951;296;1003596;-34
2023/07/23 01:57:59;;;;;;;8.80;4.70;;;;;;;-128.00;-1.00;-1.00;97914;297;1002652;-29
2023/07/23 02:00:24;;;;;;;5.90;5.10;;;;;;;-128.00;-1.00;-1.00;97922;296;1003555;-34
2023/07/23 02:02:50;;;;;;;9.10;5.30;;;;;;;-128.00;-1.00;-1.00;97960;296;1003236;-34
2023/07/23 02:05:17;;;;;;;12.40;4.80;;;;;;;-128.00;-1.00;-1.00;98026;296;1003732;-29
2023/07/23 02:07:43;;;;;;;6.80;5.90;;;;;;;-128.00;-1.00;-1.00;97908;296;1003671;-34
2023/07/23 02:10:10;;;;;;;7.30;5.80;;;;;;;-128.00;-1.00;-1.00;97910;296;1004039;-29
2023/07/23 02:12:36;;;;;;;11.10;6.10;;;;;;;-128.00;-1.00;-1.00;97786;296;1004522;-32
2023/07/23 02:15:03;;;;;;;10.80;6.10;;;;;;;-128.00;-1.00;-1.00;97817;284;1003494;-29
2023/07/23 02:17:29;;;;;;;8.50;5.80;;;;;;;-128.00;-1.00;-1.00;97854;284;1004941;-35
2023/07/23 02:19:54;;;;;;;7.20;5.10;;;;;;;-128.00;-1.00;-1.00;97901;285;1003375;-29
2023/07/23 02:22:20;;;;;;;11.50;6.00;;;;;;;-128.00;-1.00;-1.00;97963;285;1002970;-30
2023/07/23 02:24:45;;;;;;;6.00;5.00;;;;;;;-128.00;-1.00;-1.00;97928;296;1004935;-32
2023/07/23 02:27:11;;;;;;;6.80;5.50;;;;;;;-128.00;-1.00;-1.00;97937;285;1002758;-32
2023/07/23 02:29:37;;;;;;;8.80;6.60;;;;;;;-128.00;-1.00;-1.00;97905;296;1003360;-33
2023/07/23 02:32:03;;;;;;;7.70;6.20;;;;;;;-128.00;-1.00;-1.00;97963;285;1002365;-33
2023/07/23 02:34:28;;;;;;;7.40;4.80;;;;;;;-128.00;-1.00;-1.00;97961;285;1002616;-30
2023/07/23 02:36:54;;;;;;;8.80;5.90;;;;;;;-128.00;-1.00;-1.00;97938;285;1005026;-30
2023/07/23 02:39:19;;;;;;;7.20;5.10;;;;;;;-128.00;-1.00;-1.00;97853;296;1002946;-34
2023/07/23 02:41:45;;;;;;;8.70;6.30;;;;;;;-128.00;-1.00;-1.00;97876;285;1004202;-29
2023/07/23 02:44:12;;;;;;;7.30;5.90;;;;;;;-128.00;-1.00;-1.00;97901;285;1003540;-33
2023/07/23 02:46:38;;;;;;;9.60;5.10;;;;;;;-128.00;-1.00;-1.00;97990;296;1003796;-30
2023/07/23 02:49:04;;;;;;;8.60;6.40;;;;;;;-128.00;-1.00;-1.00;98006;285;1003627;-30
2023/07/23 02:51:30;;;;;;;6.30;5.40;;;;;;;-128.00;-1.00;-1.00;97883;296;1002860;-30
2023/07/23 02:53:56;;;;;;;13.40;5.40;;;;;;;-128.00;-1.00;-1.00;97861;285;1003390;-34
2023/07/23 02:56:22;;;;;;;6.00;5.10;;;;;;;-128.00;-1.00;-1.00;97873;296;1004427;-29
2023/07/23 02:58:48;;;;;;;9.70;5.20;;;;;;;-128.00;-1.00;-1.00;97981;285;1002740;-34
2023/07/23 03:01:13;;;;;;;8.10;5.30;;;;;;;-128.00;-1.00;-1.00;97863;285;1003758;-33
2023/07/23 03:03:39;;;;;;;11.20;5.20;;;;;;;-128.00;-1.00;-1.00;97888;285;1002286;-29
2023/07/23 03:06:08;;;;;;;7.80;5.40;;;;;;;-128.00;-1.00;-1.00;97843;284;1003959;-28
2023/07/23 03:08:34;;;;;;;8.10;4.80;;;;;;;-128.00;-1.00;-1.00;97843;296;1002657;-34
2023/07/23 03:11:00;;;;;;;5.40;4.80;;;;;;;-128.00;-1.00;-1.00;97975;296;1004494;-30
2023/07/23 03:13:26;;;;;;;6.30;5.00;;;;;;;-128.00;-1.00;-1.00;97990;296;1003540;-30
2023/07/23 03:15:51;;;;;;;8.50;5.00;;;;;;;-128.00;-1.00;-1.00;97958;285;1003446;-30
2023/07/23 03:18:17;;;;;;;5.70;5.10;;;;;;;-128.00;-1.00;-1.00;97937;296;1002347;-30
2023/07/23 03:20:42;;;;;;;6.10;5.50;;;;;;;-128.00;-1.00;-1.00;98099;296;1002399;-34
2023/07/23 03:23:08;;;;;;;4.70;3.00;;;;;;;-128.00;-1.00;-1.00;97888;285;1002607;-30
2023/07/23 03:25:34;;;;;;;10.20;5.40;;;;;;;-128.00;-1.00;-1.00;97890;296;1003551;-29
2023/07/23 03:28:00;;;;;;;5.60;5.00;;;;;;;-128.00;-1.00;-1.00;97868;285;1002640;-29
2023/07/23 03:30:26;;;;;;;5.90;5.30;;;;;;;-128.00;-1.00;-1.00;97882;285;1002676;-29
2023/07/23 03:32:52;;;;;;;4.80;4.40;;;;;;;-128.00;-1.00;-1.00;97879;285;1005028;-36
2023/07/23 03:35:19;;;;;;;7.20;5.10;;;;;;;-128.00;-1.00;-1.00;97950;284;1004305;-36
2023/07/23 03:37:45;;;;;;;6.50;5.30;;;;;;;-128.00;-1.00;-1.00;97985;296;1004242;-32
2023/07/23 03:40:11;;;;;;;8.10;5.70;;;;;;;-128.00;-1.00;-1.00;97913;284;1003139;-28
2023/07/23 03:42:36;;;;;;;12.80;4.70;;;;;;;-128.00;-1.00;-1.00;98070;296;1003550;-33
2023/07/23 03:45:03;;;;;;;7.10;5.40;;;;;;;-128.00;-1.00;-1.00;97940;285;1002449;-33
2023/07/23 03:47:29;;;;;;;8.40;5.00;;;;;;;-128.00;-1.00;-1.00;97963;285;1004359;-34
2023/07/23 03:49:54;;;;;;;8.90;4.90;;;;;;;-128.00;-1.00;-1.00;97971;296;1002620;-30
2023/07/23 03:52:21;;;;;;;10.30;4.50;;;;;;;-128.00;-1.00;-1.00;98030;285;1002547;-34
2023/07/23 03:54:47;;;;;;;6.30;3.60;;;;;;;-128.00;-1.00;-1.00;97981;285;1002928;-33
2023/07/23 03:57:13;;;;;;;3.50;2.50;;;;;;;-128.00;-1.00;-1.00;97865;296;1003874;-34
2023/07/23 03:59:43;;;;;;;18.60;3.60;;;;;;;-128.00;-1.00;-1.00;97774;285;1002652;-34
2023/07/23 04:02:09;;;;;;;4.50;3.70;;;;;;;-128.00;-1.00;-1.00;97916;296;1003587;-30
2023/07/23 04:04:35;;;;;;;4.20;3.70;;;;;;;-128.00;-1.00;-1.00;97886;296;1002597;-33
2023/07/23 04:07:00;;;;;;;5.60;4.60;;;;;;;-128.00;-1.00;-1.00;97908;296;1002636;-29
2023/07/23 04:09:26;;;;;;;6.60;4.00;;;;;;;-128.00;-1.00;-1.00;97825;285;1002648;-36
2023/07/23 04:11:52;;;;;;;4.50;3.50;;;;;;;-128.00;-1.00;-1.00;97996;285;1003289;-30
2023/07/23 04:14:17;;;;;;;3.80;3.40;;;;;;;-128.00;-1.00;-1.00;97929;289;1003792;-31
2023/07/23 04:16:43;;;;;;;4.20;3.00;;;;;;;-128.00;-1.00;-1.00;97918;289;1003399;-30
2023/07/23 04:19:09;;;;;;;6.90;4.50;;;;;;;-128.00;-1.00;-1.00;97874;285;1002440;-30
2023/07/23 04:21:34;;;;;;;5.10;3.60;;;;;;;-128.00;-1.00;-1.00;97877;285;1003935;-38
2023/07/23 04:24:00;;;;;;;12.30;3.30;;;;;;;-128.00;-1.00;-1.00;97801;297;1003561;-35
2023/07/23 04:26:27;;;;;;;3.30;2.60;;;;;;;-128.00;-1.00;-1.00;98034;285;1004121;-30
2023/07/23 04:28:53;;;;;;;4.10;2.70;;;;;;;-128.00;-1.00;-1.00;98011;285;1004434;-32
2023/07/23 04:31:19;;;;;;;4.60;3.30;;;;;;;-128.00;-1.00;-1.00;97889;285;1003338;-32
2023/07/23 04:33:45;;;;;;;3.10;2.80;;;;;;;-128.00;-1.00;-1.00;98039;285;1002328;-36
2023/07/23 04:36:11;;;;;;;6.40;2.80;;;;;;;-128.00;-1.00;-1.00;97950;296;1003905;-32
2023/07/23 04:38:36;;;;;;;5.70;2.90;;;;;;;-128.00;-1.00;-1.00;97898;296;1003018;-30
2023/07/23 04:41:02;;;;;;;4.10;3.20;;;;;;;-128.00;-1.00;-1.00;97887;285;1002781;-31
2023/07/23 04:43:27;;;;;;;4.40;2.40;;;;;;;-128.00;-1.00;-1.00;97945;285;1004424;-34
2023/07/23 04:45:53;;;;;;;3.60;3.10;;;;;;;-128.00;-1.00;-1.00;98091;296;1003475;-30
2023/07/23 04:48:18;;;;;;;3.20;2.90;;;;;;;-128.00;-1.00;-1.00;97934;285;1003008;-30
2023/07/23 04:50:44;;;;;;;5.30;2.90;;;;;;;-128.00;-1.00;-1.00;97826;285;1003377;-29
2023/07/23 04:53:10;;;;;;;4.80;2.50;;;;;;;-128.00;-1.00;-1.00;97867;285;1002484;-30
2023/07/23 04:55:36;;;;;;;3.40;3.00;;;;;;;-128.00;-1.00;-1.00;97896;285;1003471;-34
2023/07/23 04:58:02;;;;;;;4.40;2.10;;;;;;;-128.00;-1.00;-1.00;97846;285;1003751;-30
2023/07/23 05:00:28;;;;;;;4.40;3.00;;;;;;;-128.00;-1.00;-1.00;98019;285;1004500;-30
2023/07/23 05:02:53;;;;;;;3.90;2.30;;;;;;;-128.00;-1.00;-1.00;97892;285;1003846;-33
2023/07/23 05:05:19;;;;;;;3.30;2.60;;;;;;;-128.00;-1.00;-1.00;97928;296;1003269;-32
2023/07/23 05:07:44;;;;;;;4.00;1.70;;;;;;;-128.00;-1.00;-1.00;97865;296;1003694;-31
2023/07/23 05:10:10;;;;;;;3.90;2.30;;;;;;;-128.00;-1.00;-1.00;97743;285;1003411;-35
2023/07/23 05:12:36;;;;;;;2.90;2.40;;;;;;;-128.00;-1.00;-1.00;97963;285;1003238;-34
2023/07/23 05:15:10;;;;;;;5.40;3.50;;;;;;;-128.00;-1.00;-1.00;97894;285;1003575;-35
2023/07/23 05:17:36;;;;;;;2.40;1.90;;;;;;;-128.00;-1.00;-1.00;97942;285;1003029;-37
2023/07/23 05:20:02;;;;;;;3.90;3.00;;;;;;;-128.00;-1.00;-1.00;97810;296;1004937;-30
2023/07/23 05:22:28;;;;;;;3.40;2.60;;;;;;;-128.00;-1.00;-1.00;97798;285;1003860;-29
2023/07/23 05:24:54;;;;;;;4.90;2.90;;;;;;;-128.00;-1.00;-1.00;97866;285;1002697;-29
2023/07/23 05:27:20;;;;;;;1.80;1.50;;;;;;;-128.00;-1.00;-1.00;97804;296;1002864;-34
2023/07/23 05:29:45;;;;;;;3.80;3.20;;;;;;;-128.00;-1.00;-1.00;97997;296;1003168;-29
2023/07/23 05:32:11;;;;;;;4.00;3.40;;;;;;;-128.00;-1.00;-1.00;98046;296;1004059;-31
2023/07/23 05:34:36;;;;;;;2.80;2.20;;;;;;;-128.00;-1.00;-1.00;97896;296;1002799;-30
2023/07/23 05:37:02;;;;;;;2.80;2.40;;;;;;;-128.00;-1.00;-1.00;97959;285;1002960;-31
2023/07/23 05:39:28;;;;;;;4.40;3.00;;;;;;;-128.00;-1.00;-1.00;97954;296;1003761;-32
2023/07/23 05:41:53;;;;;;;4.30;3.00;;;;;;;-128.00;-1.00;-1.00;97896;285;1003764;-33
2023/07/23 05:44:19;;;;;;;13.10;2.20;;;;;;;-128.00;-1.00;-1.00;97884;296;1004392;-29
2023/07/23 05:46:45;;;;;;;3.40;3.00;;;;;;;-128.00;-1.00;-1.00;97971;296;1002827;-31
2023/07/23 05:49:10;;;;;;;4.80;2.90;;;;;;;-128.00;-1.00;-1.00;97908;285;1003185;-33
2023/07/23 05:51:36;;;;;;;3.80;2.60;;;;;;;-128.00;-1.00;-1.00;97883;285;1004188;-35
2023/07/23 05:54:01;;;;;;;5.20;2.50;;;;;;;-128.00;-1.00;-1.00;97925;285;1003657;-36
2023/07/23 05:56:29;;;;;;;2.30;2.00;;;;;;;-128.00;-1.00;-1.00;97885;285;1004735;-31
2023/07/23 05:58:55;;;;;;;2.70;2.20;;;;;;;-128.00;-1.00;-1.00;98016;285;1004270;-35
2023/07/23 06:01:20;;;;;;;7.70;3.40;;;;;;;-128.00;-1.00;-1.00;97928;296;1002765;-30
2023/07/23 06:03:46;;;;;;;25.00;2.90;;;;;;;-128.00;-1.00;-1.00;97933;285;1003039;-30
2023/07/23 06:06:12;;;;;;;4.40;2.70;;;;;;;-128.00;-1.00;-1.00;98086;285;1004080;-34
2023/07/23 06:08:38;;;;;;;3.10;2.10;;;;;;;-128.00;-1.00;-1.00;97907;296;1004942;-34
2023/07/23 06:11:03;;;;;;;3.70;2.70;;;;;;;-128.00;-1.00;-1.00;97991;296;1004563;-34
2023/07/23 06:13:29;;;;;;;10.20;2.60;;;;;;;-128.00;-1.00;-1.00;97807;285;1002627;-30
2023/07/23 06:15:55;;;;;;;4.90;2.70;;;;;;;-128.00;-1.00;-1.00;97825;297;1002757;-30
2023/07/23 06:18:20;;;;;;;3.30;2.60;;;;;;;-128.00;-1.00;-1.00;97925;285;1002588;-35
2023/07/23 06:20:46;;;;;;;2.80;1.80;;;;;;;-128.00;-1.00;-1.00;97826;296;1003759;-38
2023/07/23 06:23:12;;;;;;;2.90;2.00;;;;;;;-128.00;-1.00;-1.00;98070;296;1003176;-32
2023/07/23 06:25:39;;;;;;;10.40;2.60;;;;;;;-128.00;-1.00;-1.00;98010;285;1002909;-35
2023/07/23 06:28:05;;;;;;;3.50;2.40;;;;;;;-128.00;-1.00;-1.00;97888;285;1003911;-31
2023/07/23 06:30:33;;;;;;;2.40;1.70;;;;;;;-128.00;-1.00;-1.00;97887;285;1002975;-35
2023/07/23 06:32:59;;;;;;;5.60;2.50;;;;;;;-128.00;-1.00;-1.00;97857;285;1003113;-35
2023/07/23 06:35:24;;;;;;;4.30;2.50;;;;;;;-128.00;-1.00;-1.00;97982;296;1003454;-35
2023/07/23 06:37:50;;;;;;;2.40;2.10;;;;;;;-128.00;-1.00;-1.00;97910;285;1002724;-35
2023/07/23 06:40:15;;;;;;;2.90;2.10;;;;;;;-128.00;-1.00;-1.00;98002;296;1002960;-36
2023/07/23 06:42:41;;;;;;;2.50;2.00;;;;;;;-128.00;-1.00;-1.00;97838;285;1004447;-32
2023/07/23 06:45:08;;;;;;;3.60;2.50;;;;;;;-128.00;-1.00;-1.00;97826;296;1002652;-31
2023/07/23 06:47:34;;;;;;;2.60;1.90;;;;;;;-128.00;-1.00;-1.00;97936;296;1004853;-37
2023/07/23 06:50:00;;;;;;;2.90;2.00;;;;;;;-128.00;-1.00;-1.00;97993;296;1002983;-38
2023/07/23 06:52:26;;;;;;;4.00;2.40;;;;;;;-128.00;-1.00;-1.00;97910;285;1003360;-34
2023/07/23 06:54:52;;;;;;;5.80;2.10;;;;;;;-128.00;-1.00;-1.00;97875;285;1004614;-37
2023/07/23 06:57:17;;;;;;;2.70;2.10;;;;;;;-128.00;-1.00;-1.00;97849;285;1002906;-35
2023/07/23 06:59:45;;;;;;;3.50;1.60;;;;;;;-128.00;-1.00;-1.00;98028;285;1004295;-36
2023/07/23 07:02:11;;;;;;;3.70;2.40;;;;;;;-128.00;-1.00;-1.00;98069;285;1002894;-36
2023/07/23 07:04:37;;;;;;;2.40;2.00;;;;;;;-128.00;-1.00;-1.00;97902;285;1004222;-32
2023/07/23 07:07:04;;;;;;;3.50;1.90;;;;;;;-128.00;-1.00;-1.00;97952;296;1003687;-36
2023/07/23 07:09:30;;;;;;;3.60;2.70;;;;;;;-128.00;-1.00;-1.00;97966;285;1002934;-32
2023/07/23 07:11:55;;;;;;;2.60;2.30;;;;;;;-128.00;-1.00;-1.00;97805;285;1002758;-31
2023/07/23 07:14:22;;;;;;;2.70;2.20;;;;;;;-128.00;-1.00;-1.00;97850;296;1003241;-35
2023/07/23 07:16:47;;;;;;;2.40;1.90;;;;;;;-128.00;-1.00;-1.00;97948;296;1002885;-35
2023/07/23 07:19:14;;;;;;;4.00;1.60;;;;;;;-128.00;-1.00;-1.00;97957;285;1002527;-38
2023/07/23 07:21:39;;;;;;;4.10;1.70;;;;;;;-128.00;-1.00;-1.00;97984;296;1002471;-35
2023/07/23 07:24:06;;;;;;;3.80;2.10;;;;;;;-128.00;-1.00;-1.00;97906;296;1003432;-32
2023/07/23 07:26:32;;;;;;;3.80;1.90;;;;;;;-128.00;-1.00;-1.00;97980;285;1003782;-34
2023/07/23 07:28:58;;;;;;;2.00;1.40;;;;;;;-128.00;-1.00;-1.00;97948;285;1002536;-32
2023/07/23 07:31:24;;;;;;;2.60;1.70;;;;;;;-128.00;-1.00;-1.00;97802;285;1002664;-31
2023/07/23 07:33:49;;;;;;;8.10;1.60;;;;;;;-128.00;-1.00;-1.00;97882;285;1002982;-32
2023/07/23 07:36:16;;;;;;;2.00;1.60;;;;;;;-128.00;-1.00;-1.00;97975;285;1004066;-31
2023/07/23 07:38:42;;;;;;;7.60;1.60;;;;;;;-128.00;-1.00;-1.00;97797;296;1002530;-35
2023/07/23 07:41:08;;;;;;;2.00;1.50;;;;;;;-128.00;-1.00;-1.00;97865;296;1002794;-32
2023/07/23 07:43:34;;;;;;;23.90;2.60;;;;;;;-128.00;-1.00;-1.00;97945;285;1003975;-31
2023/07/23 07:46:02;;;;;;;2.40;1.90;;;;;;;-128.00;-1.00;-1.00;97912;296;1002230;-31
2023/07/23 07:48:29;;;;;;;1.70;1.30;;;;;;;-128.00;-1.00;-1.00;98041;296;1002692;-35
2023/07/23 07:51:03;;;;;;;5.40;1.90;;;;;;;-128.00;-1.00;-1.00;97995;285;1003326;-37
2023/07/23 07:53:29;;;;;;;1.40;0.80;;;;;;;-128.00;-1.00;-1.00;98018;296;1002037;-35
2023/07/23 07:55:55;;;;;;;1.40;1.20;;;;;;;-128.00;-1.00;-1.00;98070;296;1003581;-35
2023/07/23 07:58:24;;;;;;;2.00;1.50;;;;;;;-128.00;-1.00;-1.00;97883;285;1003036;-37
2023/07/23 08:00:55;;;;;;;2.80;1.50;;;;;;;-128.00;-1.00;-1.00;97990;285;1004084;-36
2023/07/23 08:03:23;;;;;;;2.00;1.50;;;;;;;-128.00;-1.00;-1.00;97827;296;1002478;-37
2023/07/23 08:05:48;;;;;;;2.30;1.20;;;;;;;-128.00;-1.00;-1.00;97949;285;1002230;-28
2023/07/23 08:08:15;;;;;;;2.50;1.50;;;;;;;-128.00;-1.00;-1.00;97847;296;1003592;-36
2023/07/23 08:10:41;;;;;;;2.30;1.20;;;;;;;-128.00;-1.00;-1.00;97811;285;1002953;-31
2023/07/23 08:13:09;;;;;;;1.80;1.00;;;;;;;-128.00;-1.00;-1.00;97757;285;1002796;-31
2023/07/23 08:15:35;;;;;;;3.90;1.50;;;;;;;-128.00;-1.00;-1.00;97876;285;1004982;-35
2023/07/23 08:18:01;;;;;;;2.30;1.70;;;;;;;-128.00;-1.00;-1.00;97964;285;1002646;-34
2023/07/23 08:20:27;;;;;;;1.20;0.80;;;;;;;-128.00;-1.00;-1.00;97980;296;1003726;-35
2023/07/23 08:22:54;;;;;;;14.30;2.40;;;;;;;-128.00;-1.00;-1.00;97915;285;1002549;-32
2023/07/23 08:25:20;;;;;;;1.40;0.80;;;;;;;-128.00;-1.00;-1.00;97989;285;1002951;-35
2023/07/23 08:27:46;;;;;;;2.80;1.10;;;;;;;-128.00;-1.00;-1.00;97940;285;1002920;-32
2023/07/23 08:30:12;;;;;;;1.40;1.20;;;;;;;-128.00;-1.00;-1.00;97841;296;1003845;-35
2023/07/23 08:32:38;;;;;;;10.20;0.80;;;;;;;-128.00;-1.00;-1.00;97853;296;1004476;-32
2023/07/23 08:35:04;;;;;;;2.40;1.40;;;;;;;-128.00;-1.00;-1.00;97893;285;1004669;-36
2023/07/23 08:37:31;;;;;;;4.80;1.00;;;;;;;-128.00;-1.00;-1.00;97814;297;1002767;-33
2023/07/23 08:39:58;;;;;;;3.10;1.50;;;;;;;-128.00;-1.00;-1.00;98010;296;1003027;-36
2023/07/23 08:42:55;;;;;;;1.60;1.10;;;;;;;-128.00;-1.00;-1.00;97913;296;1002263;-33
2023/07/23 08:45:40;;;;;;;2.80;2.10;;;;;;;-128.00;-1.00;-1.00;97857;289;1002894;-35
2023/07/23 08:48:14;;;;;;;1.20;0.90;;;;;;;-128.00;-1.00;-1.00;97822;285;1003484;-31
2023/07/23 08:50:40;;;;;;;2.30;1.70;;;;;;;-128.00;-1.00;-1.00;98038;296;1002917;-34
2023/07/23 08:53:08;;;;;;;2.60;1.20;;;;;;;-128.00;-1.00;-1.00;97927;285;1002664;-34
2023/07/23 08:55:33;;;;;;;2.20;1.40;;;;;;;-128.00;-1.00;-1.00;98036;285;1003253;-31
2023/07/23 08:58:00;;;;;;;8.90;1.50;;;;;;;-128.00;-1.00;-1.00;97801;285;1004399;-31
2023/07/23 09:00:27;;;;;;;2.10;1.40;;;;;;;-128.00;-1.00;-1.00;97962;285;1003320;-33
2023/07/23 09:02:53;;;;;;;2.10;1.40;;;;;;;-128.00;-1.00;-1.00;97965;285;1002441;-38
2023/07/23 09:05:18;;;;;;;2.60;1.00;;;;;;;-128.00;-1.00;-1.00;98050;296;1002863;-33
2023/07/23 09:07:44;;;;;;;2.00;1.50;;;;;;;-128.00;-1.00;-1.00;97970;285;1004847;-37
2023/07/23 09:10:09;;;;;;;5.50;1.10;;;;;;;-128.00;-1.00;-1.00;97821;297;1004672;-35
2023/07/23 09:12:40;;;;;;;2.10;1.50;;;;;;;-128.00;-1.00;-1.00;97993;296;1003615;-31
2023/07/23 09:15:07;;;;;;;3.60;2.70;;;;;;;-128.00;-1.00;-1.00;97886;285;1002274;-35
2023/07/23 09:17:32;;;;;;;3.00;1.60;;;;;;;-128.00;-1.00;-1.00;97885;296;1004916;-31
2023/07/23 09:19:59;;;;;;;1.40;0.80;;;;;;;-128.00;-1.00;-1.00;97942;289;1003937;-31
2023/07/23 09:22:24;;;;;;;2.30;1.50;;;;;;;-128.00;-1.00;-1.00;97369;285;1002808;-35
2023/07/23 09:24:57;;;;;;;2.80;1.40;;;;;;;-128.00;-1.00;-1.00;97848;285;1005005;-31
2023/07/23 09:27:22;;;;;;;2.00;1.10;;;;;;;-128.00;-1.00;-1.00;97891;285;1003121;-32
2023/07/23 09:29:48;;;;;;;1.70;1.00;;;;;;;-128.00;-1.00;-1.00;97874;285;1002705;-35
2023/07/23 09:32:26;;;;;;;1.80;1.50;;;;;;;-128.00;-1.00;-1.00;97960;289;1003468;-33
2023/07/23 09:34:53;;;;;;;1.70;1.30;;;;;;;-128.00;-1.00;-1.00;97872;285;1002855;-37
2023/07/23 09:37:19;;;;;;;2.00;1.40;;;;;;;-128.00;-1.00;-1.00;97944;285;1004647;-36
2023/07/23 09:39:44;;;;;;;2.00;1.20;;;;;;;-128.00;-1.00;-1.00;97994;296;1004085;-32
2023/07/23 09:42:10;;;;;;;2.40;1.60;;;;;;;-128.00;-1.00;-1.00;97844;285;1003465;-36
2023/07/23 09:44:38;;;;;;;1.40;1.20;;;;;;;-128.00;-1.00;-1.00;98046;285;1004774;-34
2023/07/23 09:47:04;;;;;;;3.40;1.30;;;;;;;-128.00;-1.00;-1.00;97921;296;1004322;-36
2023/07/23 09:49:29;;;;;;;1.80;1.20;;;;;;;-128.00;-1.00;-1.00;97849;285;1003638;-29
2023/07/23 09:51:55;;;;;;;2.50;1.70;;;;;;;-128.00;-1.00;-1.00;98012;285;1003565;-31
2023/07/23 09:54:22;;;;;;;1.80;1.30;;;;;;;-128.00;-1.00;-1.00;97925;285;1005076;-32
2023/07/23 09:56:50;;;;;;;1.70;1.40;;;;;;;-128.00;-1.00;-1.00;97807;285;1003042;-36
2023/07/23 09:59:15;;;;;;;2.00;1.30;;;;;;;-128.00;-1.00;-1.00;97881;285;1002876;-32
2023/07/23 10:01:41;;;;;;;1.50;1.30;;;;;;;-128.00;-1.00;-1.00;97882;285;1002658;-32
2023/07/23 10:04:06;;;;;;;2.10;1.30;;;;;;;-128.00;-1.00;-1.00;98127;285;1002778;-36
2023/07/23 10:06:32;;;;;;;1.90;1.40;;;;;;;-128.00;-1.00;-1.00;97972;296;1003557;-32
2023/07/23 10:08:58;;;;;;;4.40;0.90;;;;;;;-128.00;-1.00;-1.00;97748;298;1003383;-32
2023/07/23 10:11:23;;;;;;;2.70;1.50;;;;;;;-128.00;-1.00;-1.00;97882;285;1003166;-36
2023/07/23 10:13:51;;;;;;;1.60;1.20;;;;;;;-128.00;-1.00;-1.00;97883;285;1004501;-39
2023/07/23 10:16:37;;;;;;;1.70;1.30;;;;;;;-128.00;-1.00;-1.00;97893;293;1003569;-32
2023/07/23 10:19:04;;;;;;;5.20;1.90;;;;;;;-128.00;-1.00;-1.00;97911;285;1002340;-31
2023/07/23 10:21:32;;;;;;;3.40;1.00;;;;;;;-128.00;-1.00;-1.00;97939;285;1002756;-35
2023/07/23 10:23:58;;;;;;;6.20;1.80;;;;;;;-128.00;-1.00;-1.00;97910;285;1002463;-33
2023/07/23 10:26:26;;;;;;;2.10;1.00;;;;;;;-128.00;-1.00;-1.00;97879;296;1002835;-31
2023/07/23 10:28:57;;;;;;;2.10;1.10;;;;;;;-128.00;-1.00;-1.00;97829;285;1002497;-35
2023/07/23 10:31:28;;;;;;;1.40;1.30;;;;;;;-128.00;-1.00;-1.00;97958;285;1004461;-35
2023/07/23 10:33:54;;;;;;;2.40;1.20;;;;;;;-128.00;-1.00;-1.00;97823;296;1003127;-35
2023/07/23 10:36:22;;;;;;;1.00;0.70;;;;;;;-128.00;-1.00;-1.00;97891;286;1003514;-37
2023/07/23 10:39:01;;;;;;;2.90;1.10;;;;;;;-128.00;-1.00;-1.00;98053;296;1002797;-31
2023/07/23 10:41:46;;;;;;;2.50;1.40;;;;;;;-128.00;-1.00;-1.00;97805;297;1003484;-31
2023/07/23 10:44:21;;;;;;;2.00;1.00;;;;;;;-128.00;-1.00;-1.00;97874;296;1003939;-35
2023/07/23 10:46:47;;;;;;;2.40;1.10;;;;;;;-128.00;-1.00;-1.00;97891;285;1004241;-34
2023/07/23 10:49:18;;;;;;;3.70;1.40;;;;;;;-128.00;-1.00;-1.00;97819;285;1003229;-32
2023/07/23 10:51:45;;;;;;;1.50;1.00;;;;;;;-128.00;-1.00;-1.00;97886;285;1003688;-31
2023/07/23 10:54:11;;;;;;;1.80;1.30;;;;;;;-128.00;-1.00;-1.00;97803;298;1002876;-31
2023/07/23 10:56:39;;;;;;;1.50;0.90;;;;;;;-128.00;-1.00;-1.00;97939;285;1002566;-36
2023/07/23 10:59:07;;;;;;;2.20;1.00;;;;;;;-128.00;-1.00;-1.00;97957;285;1003071;-32
2023/07/23 11:01:35;;;;;;;3.00;1.60;;;;;;;-128.00;-1.00;-1.00;97860;296;1002726;-35
2023/07/23 11:04:13;;;;;;;1.30;0.90;;;;;;;-128.00;-1.00;-1.00;97916;285;1003044;-31
2023/07/23 11:06:42;;;;;;;2.10;1.20;;;;;;;-128.00;-1.00;-1.00;97894;296;1004811;-33
2023/07/23 11:09:10;;;;;;;4.80;1.30;;;;;;;-128.00;-1.00;-1.00;97907;285;1004479;-36
2023/07/23 11:11:40;;;;;;;2.00;1.20;;;;;;;-128.00;-1.00;-1.00;97939;285;1002813;-35
2023/07/23 11:14:22;;;;;;;2.20;1.50;;;;;;;-128.00;-1.00;-1.00;97895;285;1002631;-31
2023/07/23 11:16:49;;;;;;;1.50;0.70;;;;;;;-128.00;-1.00;-1.00;97945;296;1002668;-37
2023/07/23 11:19:19;;;;;;;0.80;0.60;;;;;;;-128.00;-1.00;-1.00;98042;296;1004765;-36
2023/07/23 11:21:50;;;;;;;2.00;1.10;;;;;;;-128.00;-1.00;-1.00;97936;296;1002857;-31
2023/07/23 11:24:17;;;;;;;0.90;0.70;;;;;;;-128.00;-1.00;-1.00;97830;296;1004855;-35
2023/07/23 11:26:43;;;;;;;2.70;1.10;;;;;;;-128.00;-1.00;-1.00;98024;285;1004065;-36
2023/07/23 11:29:09;;;;;;;1.20;0.80;;;;;;;-128.00;-1.00;-1.00;97936;285;1003377;-32
2023/07/23 11:31:36;;;;;;;1.70;1.10;;;;;;;-128.00;-1.00;-1.00;97888;296;1002813;-33
2023/07/23 11:34:02;;;;;;;2.20;1.50;;;;;;;-128.00;-1.00;-1.00;97893;296;1004143;-32
2023/07/23 11:36:28;;;;;;;1.50;1.10;;;;;;;-128.00;-1.00;-1.00;97940;285;1003150;-31
2023/07/23 11:38:54;;;;;;;3.00;1.10;;;;;;;-128.00;-1.00;-1.00;97999;296;1002660;-38
2023/07/23 11:41:27;;;;;;;1.50;1.20;;;;;;;-128.00;-1.00;-1.00;97887;296;1003463;-35
2023/07/23 11:43:53;;;;;;;3.30;1.30;;;;;;;-128.00;-1.00;-1.00;97946;296;1003424;-36
2023/07/23 11:46:18;;;;;;;1.70;0.90;;;;;;;-128.00;-1.00;-1.00;97927;296;1002829;-33
2023/07/23 11:48:44;;;;;;;2.10;0.90;;;;;;;-128.00;-1.00;-1.00;97928;285;1002098;-35
2023/07/23 11:51:09;;;;;;;1.30;1.00;;;;;;;-128.00;-1.00;-1.00;97897;296;1004607;-33
2023/07/23 11:53:36;;;;;;;1.50;1.30;;;;;;;-128.00;-1.00;-1.00;97875;285;1002576;-33
2023/07/23 11:56:07;;;;;;;6.70;1.10;;;;;;;-128.00;-1.00;-1.00;97825;285;1002848;-35
2023/07/23 11:58:34;;;;;;;1.00;1.00;;;;;;;-128.00;-1.00;-1.00;97902;296;1004344;-35
2023/07/23 12:01:00;;;;;;;9.80;1.30;;;;;;;-128.00;-1.00;-1.00;97852;285;1002778;-36
2023/07/23 12:03:26;;;;;;;3.30;1.10;;;;;;;-128.00;-1.00;-1.00;97997;296;1002430;-31
2023/07/23 12:05:51;;;;;;;7.80;1.60;;;;;;;-128.00;-1.00;-1.00;97813;296;1003631;-38
2023/07/23 12:08:17;;;;;;;1.30;0.80;;;;;;;-128.00;-1.00;-1.00;97877;296;1002903;-33
2023/07/23 12:10:43;;;;;;;3.20;1.40;;;;;;;-128.00;-1.00;-1.00;97895;285;1004290;-30